createdAt,value
2017-08-18T00:00:55.183Z,1005.7
2017-08-18T00:01:56.872Z,1005.7
2017-08-18T00:03:38.246Z,1005.7
2017-08-18T00:04:40.192Z,1005.7
2017-08-18T00:06:03.192Z,1005.7
2017-08-18T00:07:04.570Z,1005.7
2017-08-18T00:08:05.946Z,1005.7
2017-08-18T00:09:07.330Z,1005.7
2017-08-18T00:10:08.714Z,1005.7
2017-08-18T00:11:10.099Z,1005.7
2017-08-18T00:12:11.478Z,1005.7
2017-08-18T00:13:12.859Z,1005.7
2017-08-18T00:14:14.244Z,1005.6
2017-08-18T00:15:15.623Z,1005.6
2017-08-18T00:16:17.040Z,1005.6
2017-08-18T00:17:18.421Z,1005.6
2017-08-18T00:18:19.863Z,1005.6
2017-08-18T00:19:21.244Z,1005.5
2017-08-18T00:20:22.630Z,1005.5
2017-08-18T00:21:24.009Z,1005.5
2017-08-18T00:22:25.386Z,1005.6
2017-08-18T00:23:26.767Z,1005.6
2017-08-18T00:24:28.155Z,1005.6
2017-08-18T00:25:29.536Z,1005.6
2017-08-18T00:26:30.915Z,1005.6
2017-08-18T00:27:32.354Z,1005.6
2017-08-18T00:28:33.744Z,1005.5
2017-08-18T00:29:35.122Z,1005.5
2017-08-18T00:30:36.503Z,1005.5
2017-08-18T00:31:37.984Z,1005.5
2017-08-18T00:32:39.367Z,1005.5
2017-08-18T00:33:40.745Z,1005.6
2017-08-18T00:34:42.153Z,1005.5
2017-08-18T00:36:24.503Z,1005.5
2017-08-18T00:37:25.881Z,1005.5
2017-08-18T00:38:27.286Z,1005.5
2017-08-18T00:39:28.637Z,1005.5
2017-08-18T00:40:30.112Z,1005.5
2017-08-18T00:41:31.496Z,1005.5
2017-08-18T00:42:32.888Z,1005.5
2017-08-18T00:43:34.284Z,1005.5
2017-08-18T00:44:36.029Z,1005.5
2017-08-18T00:45:37.381Z,1005.5
2017-08-18T00:46:38.761Z,1005.5
2017-08-18T00:47:40.143Z,1005.5
2017-08-18T00:48:41.522Z,1005.5
2017-08-18T00:49:42.902Z,1005.5
2017-08-18T00:50:44.283Z,1005.5
2017-08-18T00:52:25.648Z,1005.5
2017-08-18T00:53:27.027Z,1005.5
2017-08-18T00:54:50.011Z,1005.5
2017-08-18T00:55:51.398Z,1005.5
2017-08-18T00:56:52.774Z,1005.5
2017-08-18T00:57:54.159Z,1005.4
2017-08-18T00:58:55.535Z,1005.5
2017-08-18T00:59:56.953Z,1005.4
2017-08-18T01:00:59.056Z,1005.4
2017-08-18T01:02:00.437Z,1005.4
2017-08-18T01:03:01.820Z,1005.4
2017-08-18T01:04:03.202Z,1005.4
2017-08-18T01:05:04.579Z,1005.4
2017-08-18T01:06:06.025Z,1005.4
2017-08-18T01:07:07.513Z,1005.3
2017-08-18T01:08:08.936Z,1005.3
2017-08-18T01:09:10.459Z,1005.3
2017-08-18T01:10:12.158Z,1005.3
2017-08-18T01:11:13.529Z,1005.3
2017-08-18T01:12:14.906Z,1005.3
2017-08-18T01:13:16.286Z,1005.3
2017-08-18T01:14:17.668Z,1005.3
2017-08-18T01:15:19.049Z,1005.3
2017-08-18T01:16:20.431Z,1005.3
2017-08-18T01:17:21.807Z,1005.2
2017-08-18T01:18:23.188Z,1005.2
2017-08-18T01:19:24.564Z,1005.2
2017-08-18T01:20:25.959Z,1005.2
2017-08-18T01:21:27.348Z,1005.2
2017-08-18T01:22:28.730Z,1005.2
2017-08-18T01:23:30.110Z,1005.1
2017-08-18T01:24:31.482Z,1005.1
2017-08-18T01:25:32.868Z,1005.1
2017-08-18T01:26:34.246Z,1005.0
2017-08-18T01:27:35.626Z,1005.0
2017-08-18T01:28:37.150Z,1005.1
2017-08-18T01:29:38.722Z,1005.0
2017-08-18T01:30:40.132Z,1005.1
2017-08-18T01:31:41.535Z,1005.0
2017-08-18T01:32:42.923Z,1005.0
2017-08-18T01:33:44.311Z,1005.0
2017-08-18T01:34:45.700Z,1005.0
2017-08-18T01:35:47.075Z,1004.9
2017-08-18T01:36:48.461Z,1005.0
2017-08-18T01:37:49.845Z,1004.9
2017-08-18T01:38:51.226Z,1004.9
2017-08-18T01:39:52.618Z,1005.0
2017-08-18T01:40:54.018Z,1005.0
2017-08-18T01:41:55.383Z,1005.0
2017-08-18T01:42:56.755Z,1004.9
2017-08-18T01:43:58.140Z,1005.0
2017-08-18T01:44:59.524Z,1005.0
2017-08-18T01:46:00.901Z,1005.1
2017-08-18T01:47:02.298Z,1005.1
2017-08-18T01:48:03.686Z,1005.1
2017-08-18T01:49:05.065Z,1005.1
2017-08-18T01:50:06.448Z,1005.1
2017-08-18T01:51:07.841Z,1005.1
2017-08-18T01:52:09.218Z,1005.1
2017-08-18T01:53:10.610Z,1005.1
2017-08-18T01:54:11.985Z,1005.1
2017-08-18T01:55:13.365Z,1005.1
2017-08-18T01:56:55.845Z,1005.1
2017-08-18T01:57:57.183Z,1005.1
2017-08-18T01:58:58.569Z,1005.0
2017-08-18T01:59:59.946Z,1005.1
2017-08-18T02:01:01.333Z,1005.0
2017-08-18T02:02:02.706Z,1005.0
2017-08-18T02:03:04.087Z,1005.1
2017-08-18T02:04:05.551Z,1005.1
2017-08-18T02:05:06.927Z,1005.1
2017-08-18T02:06:08.300Z,1005.1
2017-08-18T02:07:09.663Z,1005.1
2017-08-18T02:08:11.053Z,1005.1
2017-08-18T02:09:12.433Z,1005.1
2017-08-18T02:10:13.819Z,1005.1
2017-08-18T02:11:15.226Z,1005.1
2017-08-18T02:12:16.604Z,1005.0
2017-08-18T02:13:17.980Z,1005.0
2017-08-18T02:14:19.358Z,1005.0
2017-08-18T02:15:20.737Z,1005.0
2017-08-18T02:16:22.117Z,1004.9
2017-08-18T02:17:23.500Z,1004.9
2017-08-18T02:18:24.907Z,1004.9
2017-08-18T02:19:26.264Z,1004.8
2017-08-18T02:20:27.649Z,1004.8
2017-08-18T02:21:29.019Z,1004.8
2017-08-18T02:22:30.415Z,1004.8
2017-08-18T02:23:31.797Z,1004.8
2017-08-18T02:24:33.179Z,1004.9
2017-08-18T02:25:34.564Z,1004.9
2017-08-18T02:26:35.944Z,1004.9
2017-08-18T02:27:37.315Z,1005.0
2017-08-18T02:28:38.694Z,1005.0
2017-08-18T02:29:40.077Z,1005.1
2017-08-18T02:30:41.453Z,1005.1
2017-08-18T02:31:42.841Z,1005.1
2017-08-18T02:32:44.223Z,1005.1
2017-08-18T02:33:45.618Z,1005.1
2017-08-18T02:34:47.090Z,1005.1
2017-08-18T02:35:48.687Z,1005.1
2017-08-18T02:36:50.309Z,1005.1
2017-08-18T02:37:52.047Z,1005.0
2017-08-18T02:38:53.444Z,1005.0
2017-08-18T02:39:54.834Z,1005.0
2017-08-18T02:40:56.211Z,1005.0
2017-08-18T02:41:57.591Z,1005.0
2017-08-18T02:42:59.047Z,1005.0
2017-08-18T02:44:41.384Z,1005.0
2017-08-18T02:45:43.333Z,1005.0
2017-08-18T02:46:44.712Z,1005.0
2017-08-18T02:47:46.092Z,1005.1
2017-08-18T02:48:47.471Z,1005.1
2017-08-18T02:49:48.891Z,1005.1
2017-08-18T02:50:50.259Z,1005.1
2017-08-18T02:51:51.642Z,1005.1
2017-08-18T02:52:53.020Z,1005.1
2017-08-18T02:53:54.400Z,1005.0
2017-08-18T02:54:55.779Z,1005.0
2017-08-18T02:55:57.159Z,1005.0
2017-08-18T02:56:58.533Z,1005.0
2017-08-18T02:57:59.937Z,1005.0
2017-08-18T02:59:01.323Z,1005.1
2017-08-18T03:00:02.704Z,1005.1
2017-08-18T03:01:45.717Z,1005.1
2017-08-18T03:02:46.960Z,1005.1
2017-08-18T03:03:48.368Z,1005.1
2017-08-18T03:04:49.727Z,1005.1
2017-08-18T03:05:51.150Z,1005.1
2017-08-18T03:06:52.639Z,1005.1
2017-08-18T03:07:54.350Z,1005.1
2017-08-18T03:08:55.756Z,1005.0
2017-08-18T03:09:57.152Z,1005.0
2017-08-18T03:10:58.534Z,1005.1
2017-08-18T03:11:59.909Z,1005.1
2017-08-18T03:13:01.286Z,1005.2
2017-08-18T03:14:02.670Z,1005.2
2017-08-18T03:15:04.066Z,1005.3
2017-08-18T03:16:05.454Z,1005.2
2017-08-18T03:17:46.831Z,1005.2
2017-08-18T03:18:48.206Z,1005.3
2017-08-18T03:20:10.235Z,1005.3
2017-08-18T03:21:11.612Z,1005.3
2017-08-18T03:22:12.991Z,1005.2
2017-08-18T03:23:14.369Z,1005.2
2017-08-18T03:24:15.770Z,1005.3
2017-08-18T03:25:17.487Z,1005.3
2017-08-18T03:26:18.848Z,1005.4
2017-08-18T03:27:20.377Z,1005.3
2017-08-18T03:28:21.760Z,1005.4
2017-08-18T03:29:23.140Z,1005.4
2017-08-18T03:30:24.527Z,1005.4
2017-08-18T03:31:25.904Z,1005.3
2017-08-18T03:32:27.281Z,1005.3
2017-08-18T03:33:28.661Z,1005.3
2017-08-18T03:34:30.065Z,1005.2
2017-08-18T03:35:31.449Z,1005.2
2017-08-18T03:36:32.826Z,1005.2
2017-08-18T03:37:34.208Z,1005.1
2017-08-18T03:38:35.631Z,1005.1
2017-08-18T03:39:37.020Z,1005.2
2017-08-18T03:40:38.397Z,1005.3
2017-08-18T03:41:40.060Z,1005.3
2017-08-18T03:42:41.679Z,1005.4
2017-08-18T03:43:43.458Z,1005.5
2017-08-18T03:44:45.196Z,1005.5
2017-08-18T03:45:46.586Z,1005.5
2017-08-18T03:46:47.969Z,1005.5
2017-08-18T03:47:49.352Z,1005.4
2017-08-18T03:49:31.726Z,1005.2
2017-08-18T03:50:33.113Z,1005.1
2017-08-18T03:51:34.506Z,1005.1
2017-08-18T03:52:35.899Z,1005.1
2017-08-18T03:53:37.282Z,1004.9
2017-08-18T03:54:38.693Z,1004.9
2017-08-18T03:55:40.077Z,1004.9
2017-08-18T03:56:41.454Z,1004.9
2017-08-18T03:57:42.839Z,1004.9
2017-08-18T03:58:44.211Z,1004.9
2017-08-18T03:59:45.615Z,1004.9
2017-08-18T04:00:46.992Z,1004.9
2017-08-18T04:01:48.382Z,1004.9
2017-08-18T04:02:49.764Z,1004.9
2017-08-18T04:03:51.142Z,1004.9
2017-08-18T04:04:52.518Z,1004.8
2017-08-18T04:05:53.900Z,1004.8
2017-08-18T04:06:55.288Z,1004.7
2017-08-18T04:07:56.731Z,1004.7
2017-08-18T04:08:58.335Z,1004.7
2017-08-18T04:10:40.728Z,1004.8
2017-08-18T04:11:42.106Z,1004.9
2017-08-18T04:12:43.484Z,1004.9
2017-08-18T04:13:44.865Z,1004.9
2017-08-18T04:14:46.242Z,1004.8
2017-08-18T04:15:47.745Z,1004.8
2017-08-18T04:16:49.214Z,1004.8
2017-08-18T04:17:50.607Z,1004.9
2017-08-18T04:18:51.982Z,1004.8
2017-08-18T04:19:53.368Z,1004.8
2017-08-18T04:20:54.754Z,1004.8
2017-08-18T04:21:56.129Z,1004.8
2017-08-18T04:22:57.598Z,1004.9
2017-08-18T04:23:59.177Z,1004.9
2017-08-18T04:25:00.866Z,1005.0
2017-08-18T04:26:02.315Z,1005.1
2017-08-18T04:27:03.701Z,1005.1
2017-08-18T04:28:05.210Z,1005.1
2017-08-18T04:29:06.597Z,1005.2
2017-08-18T04:30:08.018Z,1005.2
2017-08-18T04:31:09.441Z,1005.2
2017-08-18T04:32:10.839Z,1005.2
2017-08-18T04:33:12.283Z,1005.2
2017-08-18T04:34:13.674Z,1005.2
2017-08-18T04:35:15.325Z,1005.2
2017-08-18T04:36:16.940Z,1005.2
2017-08-18T04:37:18.399Z,1005.2
2017-08-18T04:38:19.812Z,1005.2
2017-08-18T04:39:21.179Z,1005.2
2017-08-18T04:40:22.564Z,1005.2
2017-08-18T04:42:04.945Z,1005.1
2017-08-18T04:43:07.042Z,1005.0
2017-08-18T04:44:08.266Z,1005.1
2017-08-18T04:45:09.646Z,1005.1
2017-08-18T04:46:11.029Z,1005.1
2017-08-18T04:47:12.413Z,1005.0
2017-08-18T04:48:13.794Z,1005.0
2017-08-18T04:49:15.182Z,1005.0
2017-08-18T04:50:16.563Z,1005.0
2017-08-18T04:51:17.945Z,1005.1
2017-08-18T04:52:19.334Z,1005.1
2017-08-18T04:53:20.715Z,1005.0
2017-08-18T04:54:22.103Z,1005.0
2017-08-18T04:55:23.490Z,1005.0
2017-08-18T04:56:24.874Z,1005.0
2017-08-18T04:57:26.256Z,1005.1
2017-08-18T04:59:08.641Z,1005.1
2017-08-18T05:00:10.067Z,1005.1
2017-08-18T05:01:11.869Z,1005.2
2017-08-18T05:02:13.340Z,1005.1
2017-08-18T05:03:14.892Z,1005.1
2017-08-18T05:04:16.272Z,1005.1
2017-08-18T05:05:17.665Z,1005.1
2017-08-18T05:06:19.047Z,1005.1
2017-08-18T05:07:20.430Z,1005.2
2017-08-18T05:08:21.809Z,1005.3
2017-08-18T05:09:23.203Z,1005.3
2017-08-18T05:10:24.587Z,1005.3
2017-08-18T05:11:26.025Z,1005.2
2017-08-18T05:12:27.434Z,1005.3
2017-08-18T05:13:28.843Z,1005.2
2017-08-18T05:15:12.212Z,1005.2
2017-08-18T05:16:13.596Z,1005.2
2017-08-18T05:17:14.990Z,1005.2
2017-08-18T05:18:16.361Z,1005.1
2017-08-18T05:19:17.745Z,1005.1
2017-08-18T05:20:19.128Z,1005.2
2017-08-18T05:21:20.508Z,1005.2
2017-08-18T05:22:21.934Z,1005.2
2017-08-18T05:23:23.359Z,1005.2
2017-08-18T05:24:25.374Z,1005.3
2017-08-18T05:25:27.250Z,1005.2
2017-08-18T05:26:29.401Z,1005.2
2017-08-18T05:27:31.258Z,1005.2
2017-08-18T05:28:32.815Z,1005.2
2017-08-18T05:29:34.229Z,1005.2
2017-08-18T05:30:35.728Z,1005.2
2017-08-18T05:31:37.126Z,1005.2
2017-08-18T05:32:38.559Z,1005.2
2017-08-18T05:33:39.986Z,1005.3
2017-08-18T05:34:41.675Z,1005.3
2017-08-18T05:35:43.422Z,1005.2
2017-08-18T05:36:44.850Z,1005.3
2017-08-18T05:37:46.249Z,1005.3
2017-08-18T05:38:48.166Z,1005.3
2017-08-18T05:39:49.549Z,1005.3
2017-08-18T05:40:50.933Z,1005.2
2017-08-18T05:41:52.330Z,1005.2
2017-08-18T05:42:53.717Z,1005.2
2017-08-18T05:43:55.193Z,1005.2
2017-08-18T05:44:56.583Z,1005.2
2017-08-18T05:45:58.015Z,1005.1
2017-08-18T05:47:40.394Z,1005.1
2017-08-18T05:48:42.436Z,1005.1
2017-08-18T05:49:43.815Z,1005.1
2017-08-18T05:50:45.254Z,1005.1
2017-08-18T05:51:46.807Z,1005.1
2017-08-18T05:52:48.191Z,1005.1
2017-08-18T05:53:49.578Z,1005.1
2017-08-18T05:54:50.963Z,1005.0
2017-08-18T05:55:52.345Z,1005.0
2017-08-18T05:56:53.752Z,1005.0
2017-08-18T05:57:55.164Z,1004.9
2017-08-18T05:58:56.599Z,1004.9
2017-08-18T05:59:58.041Z,1004.9
2017-08-18T06:00:59.422Z,1004.8
2017-08-18T06:02:01.040Z,1004.8
2017-08-18T06:03:02.670Z,1004.7
2017-08-18T06:04:04.065Z,1004.7
2017-08-18T06:05:05.481Z,1004.7
2017-08-18T06:06:06.883Z,1004.8
2017-08-18T06:07:08.270Z,1004.8
2017-08-18T06:08:09.686Z,1004.8
2017-08-18T06:09:11.456Z,1004.9
2017-08-18T06:10:12.878Z,1004.9
2017-08-18T06:11:14.480Z,1005.0
2017-08-18T06:12:15.846Z,1005.1
2017-08-18T06:13:17.344Z,1005.1
2017-08-18T06:14:18.939Z,1005.1
2017-08-18T06:15:20.354Z,1005.1
2017-08-18T06:16:21.745Z,1005.1
2017-08-18T06:17:23.145Z,1005.0
2017-08-18T06:18:24.543Z,1005.0
2017-08-18T06:19:26.026Z,1004.8
2017-08-18T06:20:27.877Z,1004.8
2017-08-18T06:21:30.133Z,1004.8
2017-08-18T06:22:31.692Z,1004.9
2017-08-18T06:23:33.373Z,1005.0
2017-08-18T06:24:34.768Z,1005.0
2017-08-18T06:25:36.195Z,1004.9
2017-08-18T06:26:37.649Z,1004.8
2017-08-18T06:27:39.588Z,1004.8
2017-08-18T06:28:42.197Z,1004.8
2017-08-18T06:29:44.177Z,1004.8
2017-08-18T06:30:45.855Z,1004.8
2017-08-18T06:31:47.534Z,1004.8
2017-08-18T06:32:49.348Z,1004.8
2017-08-18T06:33:51.120Z,1004.8
2017-08-18T06:34:52.931Z,1004.8
2017-08-18T06:36:34.269Z,1004.7
2017-08-18T06:37:35.708Z,1004.7
2017-08-18T06:38:37.091Z,1004.6
2017-08-18T06:39:39.789Z,1004.6
2017-08-18T06:40:41.135Z,1004.7
2017-08-18T06:41:42.894Z,1004.7
2017-08-18T06:42:44.540Z,1004.7
2017-08-18T06:43:46.171Z,1004.7
2017-08-18T06:44:47.950Z,1004.6
2017-08-18T06:45:49.691Z,1004.6
2017-08-18T06:46:51.361Z,1004.5
2017-08-18T06:47:52.998Z,1004.6
2017-08-18T06:48:54.621Z,1004.6
2017-08-18T06:49:56.050Z,1004.7
2017-08-18T06:51:38.510Z,1004.6
2017-08-18T06:52:39.883Z,1004.6
2017-08-18T06:53:41.384Z,1004.7
2017-08-18T06:54:42.967Z,1004.8
2017-08-18T06:55:44.338Z,1004.8
2017-08-18T06:56:46.347Z,1004.7
2017-08-18T06:57:48.080Z,1004.7
2017-08-18T06:58:49.701Z,1004.7
2017-08-18T06:59:51.383Z,1004.7
2017-08-18T07:00:53.101Z,1004.6
2017-08-18T07:01:54.539Z,1004.6
2017-08-18T07:02:55.987Z,1004.6
2017-08-18T07:03:57.461Z,1004.6
2017-08-18T07:04:59.112Z,1004.6
2017-08-18T07:06:00.570Z,1004.6
2017-08-18T07:07:02.065Z,1004.6
2017-08-18T07:08:03.965Z,1004.7
2017-08-18T07:09:06.122Z,1004.7
2017-08-18T07:10:07.665Z,1004.7
2017-08-18T07:11:09.370Z,1004.7
2017-08-18T07:12:11.039Z,1004.7
2017-08-18T07:13:13.161Z,1004.7
2017-08-18T07:14:14.658Z,1004.7
2017-08-18T07:15:16.344Z,1004.7
2017-08-18T07:16:18.023Z,1004.7
2017-08-18T07:17:19.461Z,1004.6
2017-08-18T07:18:21.753Z,1004.7
2017-08-18T07:19:23.183Z,1004.7
2017-08-18T07:20:25.163Z,1004.7
2017-08-18T07:21:26.631Z,1004.7
2017-08-18T07:22:28.071Z,1004.7
2017-08-18T07:24:13.808Z,1004.7
2017-08-18T07:25:15.831Z,1004.6
2017-08-18T07:26:19.530Z,1004.7
2017-08-18T07:27:21.034Z,1004.6
2017-08-18T07:28:23.026Z,1004.6
2017-08-18T07:29:24.760Z,1004.6
2017-08-18T07:30:26.746Z,1004.7
2017-08-18T07:31:28.186Z,1004.7
2017-08-18T07:32:29.713Z,1004.7
2017-08-18T07:33:31.913Z,1004.7
2017-08-18T07:34:33.919Z,1004.7
2017-08-18T07:35:36.100Z,1004.7
2017-08-18T07:36:38.152Z,1004.7
2017-08-18T07:37:40.333Z,1004.7
2017-08-18T07:38:42.241Z,1004.7
2017-08-18T07:40:26.816Z,1004.7
2017-08-18T07:41:28.652Z,1004.8
2017-08-18T07:42:30.385Z,1004.8
2017-08-18T07:43:32.307Z,1004.9
2017-08-18T07:44:34.154Z,1004.9
2017-08-18T07:45:35.697Z,1004.9
2017-08-18T07:46:37.090Z,1004.9
2017-08-18T07:47:38.924Z,1004.9
2017-08-18T07:48:40.701Z,1004.9
2017-08-18T07:49:42.335Z,1004.9
2017-08-18T07:50:43.727Z,1004.9
2017-08-18T07:51:45.205Z,1005.0
2017-08-18T07:52:46.709Z,1004.9
2017-08-18T07:53:48.173Z,1004.9
2017-08-18T07:54:50.013Z,1004.9
2017-08-18T07:55:51.496Z,1004.9
2017-08-18T07:56:52.934Z,1004.9
2017-08-18T07:57:54.390Z,1004.9
2017-08-18T07:58:55.860Z,1004.9
2017-08-18T07:59:57.280Z,1004.9
2017-08-18T08:00:58.720Z,1004.9
2017-08-18T08:02:00.609Z,1004.9
2017-08-18T08:03:02.507Z,1004.9
2017-08-18T08:04:04.668Z,1004.9
2017-08-18T08:05:06.951Z,1004.9
2017-08-18T08:06:08.347Z,1004.9
2017-08-18T08:07:09.830Z,1005.0
2017-08-18T08:08:11.523Z,1004.9
2017-08-18T08:09:13.533Z,1005.0
2017-08-18T08:10:15.262Z,1004.9
2017-08-18T08:11:16.864Z,1004.9
2017-08-18T08:12:59.253Z,1005.0
2017-08-18T08:14:00.657Z,1005.0
2017-08-18T08:15:02.038Z,1005.0
2017-08-18T08:16:03.861Z,1005.0
2017-08-18T08:17:06.140Z,1005.0
2017-08-18T08:18:08.220Z,1005.0
2017-08-18T08:19:09.982Z,1005.0
2017-08-18T08:20:11.485Z,1005.0
2017-08-18T08:21:12.876Z,1005.0
2017-08-18T08:22:14.300Z,1004.9
2017-08-18T08:23:16.436Z,1004.9
2017-08-18T08:24:18.523Z,1004.9
2017-08-18T08:25:20.404Z,1004.9
2017-08-18T08:26:21.868Z,1004.9
2017-08-18T08:28:04.390Z,1004.9
2017-08-18T08:29:05.806Z,1004.8
2017-08-18T08:30:07.188Z,1004.8
2017-08-18T08:31:08.572Z,1004.8
2017-08-18T08:32:12.693Z,1004.8
2017-08-18T08:33:14.838Z,1004.8
2017-08-18T08:34:16.324Z,1004.7
2017-08-18T08:35:17.749Z,1004.8
2017-08-18T08:36:19.139Z,1004.7
2017-08-18T08:37:21.260Z,1004.8
2017-08-18T08:38:22.796Z,1004.8
2017-08-18T08:39:24.205Z,1004.9
2017-08-18T08:40:25.680Z,1004.9
2017-08-18T08:41:27.589Z,1004.9
2017-08-18T08:42:29.003Z,1004.9
2017-08-18T08:44:11.394Z,1004.9
2017-08-18T08:45:20.620Z,1004.9
2017-08-18T08:46:22.010Z,1004.9
2017-08-18T08:47:23.439Z,1004.9
2017-08-18T08:48:24.894Z,1004.9
2017-08-18T08:49:26.519Z,1004.9
2017-08-18T08:50:27.976Z,1004.9
2017-08-18T08:51:29.393Z,1004.8
2017-08-18T08:52:31.171Z,1004.8
2017-08-18T08:53:32.614Z,1004.9
2017-08-18T08:54:34.517Z,1004.7
2017-08-18T08:55:36.393Z,1004.7
2017-08-18T08:56:37.852Z,1004.7
2017-08-18T08:57:39.344Z,1004.6
2017-08-18T08:58:41.537Z,1004.6
2017-08-18T08:59:43.775Z,1004.6
2017-08-18T09:00:45.280Z,1004.6
2017-08-18T09:01:46.745Z,1004.6
2017-08-18T09:02:48.189Z,1004.6
2017-08-18T09:03:49.637Z,1004.6
2017-08-18T09:04:51.107Z,1004.6
2017-08-18T09:05:52.514Z,1004.6
2017-08-18T09:06:53.945Z,1004.5
2017-08-18T09:07:55.445Z,1004.6
2017-08-18T09:08:56.996Z,1004.5
2017-08-18T09:09:59.125Z,1004.5
2017-08-18T09:11:01.266Z,1004.6
2017-08-18T09:12:03.222Z,1004.6
2017-08-18T09:13:04.680Z,1004.6
2017-08-18T09:14:06.239Z,1004.5
2017-08-18T09:15:07.679Z,1004.6
2017-08-18T09:16:09.846Z,1004.6
2017-08-18T09:17:11.332Z,1004.6
2017-08-18T09:18:12.795Z,1004.6
2017-08-18T09:19:14.454Z,1004.6
2017-08-18T09:20:15.986Z,1004.6
2017-08-18T09:21:17.408Z,1004.6
2017-08-18T09:22:18.815Z,1004.6
2017-08-18T09:23:20.269Z,1004.6
2017-08-18T09:24:21.669Z,1004.6
2017-08-18T09:25:23.082Z,1004.5
2017-08-18T09:26:24.610Z,1004.5
2017-08-18T09:27:26.549Z,1004.5
2017-08-18T09:28:28.001Z,1004.5
2017-08-18T09:29:29.528Z,1004.6
2017-08-18T09:30:31.811Z,1004.5
2017-08-18T09:32:14.170Z,1004.5
2017-08-18T09:33:15.551Z,1004.5
2017-08-18T09:34:16.956Z,1004.5
2017-08-18T09:35:22.642Z,1004.5
2017-08-18T09:36:24.039Z,1004.5
2017-08-18T09:37:25.489Z,1004.4
2017-08-18T09:38:26.934Z,1004.4
2017-08-18T09:39:28.359Z,1004.4
2017-08-18T09:40:29.980Z,1004.4
2017-08-18T09:41:31.424Z,1004.5
2017-08-18T09:42:32.880Z,1004.6
2017-08-18T09:43:35.240Z,1004.6
2017-08-18T09:44:37.006Z,1004.6
2017-08-18T09:45:38.452Z,1004.6
2017-08-18T09:46:39.857Z,1004.5
2017-08-18T09:48:22.252Z,1004.6
2017-08-18T09:49:23.641Z,1004.6
2017-08-18T09:50:25.030Z,1004.6
2017-08-18T09:51:29.045Z,1004.5
2017-08-18T09:52:31.063Z,1004.4
2017-08-18T09:53:32.442Z,1004.5
2017-08-18T09:54:33.875Z,1004.6
2017-08-18T09:55:35.271Z,1004.6
2017-08-18T09:56:36.667Z,1004.6
2017-08-18T09:57:38.083Z,1004.5
2017-08-18T09:58:40.526Z,1004.4
2017-08-18T09:59:42.669Z,1004.4
2017-08-18T10:00:44.184Z,1004.4
2017-08-18T10:01:45.652Z,1004.3
2017-08-18T10:02:47.705Z,1004.3
2017-08-18T10:04:30.096Z,1004.3
2017-08-18T10:05:34.015Z,1004.3
2017-08-18T10:06:35.416Z,1004.2
2017-08-18T10:07:36.858Z,1004.3
2017-08-18T10:08:38.252Z,1004.2
2017-08-18T10:09:39.822Z,1004.2
2017-08-18T10:10:41.214Z,1004.1
2017-08-18T10:11:42.622Z,1004.1
2017-08-18T10:12:44.006Z,1004.1
2017-08-18T10:13:45.406Z,1004.1
2017-08-18T10:14:46.804Z,1004.1
2017-08-18T10:15:48.190Z,1004.1
2017-08-18T10:16:49.581Z,1004.1
2017-08-18T10:17:51.000Z,1004.1
2017-08-18T10:18:52.385Z,1004.1
2017-08-18T10:20:38.856Z,1004.1
2017-08-18T10:21:41.144Z,1004.1
2017-08-18T10:22:43.209Z,1004.1
2017-08-18T10:23:44.627Z,1004.0
2017-08-18T10:24:46.069Z,1004.0
2017-08-18T10:25:47.601Z,1004.0
2017-08-18T10:26:49.015Z,1004.0
2017-08-18T10:27:50.448Z,1004.1
2017-08-18T10:28:51.837Z,1004.1
2017-08-18T10:29:53.245Z,1004.1
2017-08-18T10:30:55.484Z,1004.1
2017-08-18T10:31:56.911Z,1004.1
2017-08-18T10:32:58.319Z,1004.1
2017-08-18T10:33:59.719Z,1004.2
2017-08-18T10:35:01.124Z,1004.1
2017-08-18T10:36:03.448Z,1004.1
2017-08-18T10:37:05.692Z,1004.2
2017-08-18T10:38:07.169Z,1004.2
2017-08-18T10:39:08.556Z,1004.2
2017-08-18T10:40:09.984Z,1004.2
2017-08-18T10:41:11.373Z,1004.2
2017-08-18T10:42:12.764Z,1004.3
2017-08-18T10:43:14.164Z,1004.3
2017-08-18T10:44:15.580Z,1004.3
2017-08-18T10:45:16.989Z,1004.3
2017-08-18T10:46:18.385Z,1004.3
2017-08-18T10:47:19.774Z,1004.3
2017-08-18T10:48:21.167Z,1004.3
2017-08-18T10:49:22.560Z,1004.3
2017-08-18T10:50:23.951Z,1004.4
2017-08-18T10:51:25.341Z,1004.4
2017-08-18T10:53:06.733Z,1004.3
2017-08-18T10:54:08.122Z,1004.4
2017-08-18T10:55:30.137Z,1004.4
2017-08-18T10:56:31.526Z,1004.3
2017-08-18T10:57:53.535Z,1004.3
2017-08-18T10:58:54.923Z,1004.3
2017-08-18T11:00:16.955Z,1004.2
2017-08-18T11:01:18.339Z,1004.2
2017-08-18T11:02:40.350Z,1004.1
2017-08-18T11:03:41.845Z,1004.2
2017-08-18T11:04:43.217Z,1004.2
2017-08-18T11:05:44.616Z,1004.2
2017-08-18T11:06:46.034Z,1004.2
2017-08-18T11:07:47.412Z,1004.2
2017-08-18T11:08:48.806Z,1004.3
2017-08-18T11:09:50.195Z,1004.2
2017-08-18T11:10:51.591Z,1004.3
2017-08-18T11:11:52.980Z,1004.3
2017-08-18T11:12:54.367Z,1004.3
2017-08-18T11:13:55.760Z,1004.3
2017-08-18T11:14:57.164Z,1004.3
2017-08-18T11:15:58.550Z,1004.3
2017-08-18T11:16:59.950Z,1004.2
2017-08-18T11:18:01.406Z,1004.2
2017-08-18T11:19:02.768Z,1004.2
2017-08-18T11:20:04.160Z,1004.1
2017-08-18T11:21:05.573Z,1004.1
2017-08-18T11:22:07.015Z,1004.1
2017-08-18T11:23:08.411Z,1004.1
2017-08-18T11:24:09.805Z,1004.0
2017-08-18T11:25:11.196Z,1004.0
2017-08-18T11:26:12.590Z,1004.0
2017-08-18T11:27:14.011Z,1004.0
2017-08-18T11:28:15.400Z,1004.0
2017-08-18T11:29:16.779Z,1004.0
2017-08-18T11:30:18.173Z,1004.0
2017-08-18T11:31:19.566Z,1004.0
2017-08-18T11:32:20.969Z,1004.0
2017-08-18T11:33:22.350Z,1004.0
2017-08-18T11:34:23.750Z,1003.9
2017-08-18T11:35:25.136Z,1004.0
2017-08-18T11:36:26.529Z,1004.0
2017-08-18T11:37:27.920Z,1004.0
2017-08-18T11:38:29.317Z,1004.0
2017-08-18T11:39:30.712Z,1003.9
2017-08-18T11:41:12.093Z,1003.9
2017-08-18T11:42:13.483Z,1003.9
2017-08-18T11:43:35.571Z,1004.0
2017-08-18T11:44:36.961Z,1003.9
2017-08-18T11:45:58.967Z,1004.0
2017-08-18T11:47:00.358Z,1004.0
2017-08-18T11:48:23.373Z,1004.0
2017-08-18T11:49:24.767Z,1003.9
2017-08-18T11:50:26.156Z,1003.9
2017-08-18T11:51:27.552Z,1003.9
2017-08-18T11:52:28.945Z,1003.8
2017-08-18T11:53:30.335Z,1003.8
2017-08-18T11:54:31.729Z,1003.7
2017-08-18T11:55:33.120Z,1003.7
2017-08-18T11:57:15.499Z,1003.7
2017-08-18T11:58:16.887Z,1003.7
2017-08-18T11:59:18.276Z,1003.8
2017-08-18T12:00:19.665Z,1003.8
2017-08-18T12:01:21.065Z,1003.8
2017-08-18T12:02:22.455Z,1003.8
2017-08-18T12:03:23.860Z,1003.8
2017-08-18T12:04:25.264Z,1003.8
2017-08-18T12:05:26.647Z,1003.8
2017-08-18T12:06:28.045Z,1003.8
2017-08-18T12:07:29.432Z,1003.8
2017-08-18T12:08:30.823Z,1003.8
2017-08-18T12:09:32.220Z,1003.8
2017-08-18T12:10:33.604Z,1003.8
2017-08-18T12:11:35.000Z,1003.9
2017-08-18T12:12:36.389Z,1003.8
2017-08-18T12:13:37.776Z,1003.8
2017-08-18T12:14:39.166Z,1003.8
2017-08-18T12:15:40.556Z,1003.7
2017-08-18T12:16:42.227Z,1003.8
2017-08-18T12:17:43.563Z,1003.7
2017-08-18T12:18:44.954Z,1003.8
2017-08-18T12:19:46.346Z,1003.8
2017-08-18T12:20:47.744Z,1003.7
2017-08-18T12:21:49.135Z,1003.7
2017-08-18T12:22:50.531Z,1003.7
2017-08-18T12:23:51.924Z,1003.7
2017-08-18T12:24:53.319Z,1003.7
2017-08-18T12:25:54.819Z,1003.6
2017-08-18T12:26:56.196Z,1003.6
2017-08-18T12:27:57.581Z,1003.6
2017-08-18T12:29:39.960Z,1003.6
2017-08-18T12:30:41.353Z,1003.7
2017-08-18T12:31:42.785Z,1003.6
2017-08-18T12:32:44.155Z,1003.7
2017-08-18T12:33:45.750Z,1003.6
2017-08-18T12:34:47.169Z,1003.7
2017-08-18T12:35:48.554Z,1003.6
2017-08-18T12:36:49.947Z,1003.6
2017-08-18T12:37:51.331Z,1003.7
2017-08-18T12:38:52.719Z,1003.6
2017-08-18T12:39:54.110Z,1003.5
2017-08-18T12:40:55.489Z,1003.5
2017-08-18T12:41:56.893Z,1003.6
2017-08-18T12:42:58.283Z,1003.6
2017-08-18T12:43:59.671Z,1003.5
2017-08-18T12:45:42.057Z,1003.6
2017-08-18T12:46:43.437Z,1003.6
2017-08-18T12:47:44.825Z,1003.6
2017-08-18T12:48:46.216Z,1003.5
2017-08-18T12:49:47.606Z,1003.5
2017-08-18T12:50:49.312Z,1003.5
2017-08-18T12:51:50.660Z,1003.5
2017-08-18T12:52:52.042Z,1003.4
2017-08-18T12:53:53.427Z,1003.4
2017-08-18T12:54:54.815Z,1003.3
2017-08-18T12:55:56.209Z,1003.4
2017-08-18T12:56:57.620Z,1003.4
2017-08-18T12:57:59.005Z,1003.3
2017-08-18T12:59:00.398Z,1003.4
2017-08-18T13:00:01.824Z,1003.3
2017-08-18T13:01:03.211Z,1003.3
2017-08-18T13:02:04.601Z,1003.3
2017-08-18T13:03:06.046Z,1003.3
2017-08-18T13:04:07.434Z,1003.3
2017-08-18T13:05:08.820Z,1003.2
2017-08-18T13:06:10.212Z,1003.3
2017-08-18T13:07:11.603Z,1003.2
2017-08-18T13:08:12.988Z,1003.3
2017-08-18T13:09:14.376Z,1003.2
2017-08-18T13:10:15.757Z,1003.2
2017-08-18T13:11:17.153Z,1003.2